sensor_id;sensor_type;location;lat;lon;timestamp;P1;durP1;ratioP1;P2;durP2;ratioP2
5475;SDS011;2760;50.000;9.194;2023-02-01T00:00:10;12.33;;;6.07;;
5475;SDS011;2760;50.000;9.194;2023-02-01T00:02:39;6.97;;;5.30;;
5475;SDS011;2760;50.000;9.194;2023-02-01T00:05:06;8.77;;;5.93;;
5475;SDS011;2760;50.000;9.194;2023-02-01T00:07:35;7.10;;;5.73;;
5475;SDS011;2760;50.000;9.194;2023-02-01T00:10:03;6.00;;;5.50;;
5475;SDS011;2760;50.000;9.194;2023-02-01T00:12:31;6.50;;;5.80;;
5475;SDS011;2760;50.000;9.194;2023-02-01T00:15:00;8.97;;;5.60;;
5475;SDS011;2760;50.000;9.194;2023-02-01T00:17:27;5.93;;;5.33;;
5475;SDS011;2760;50.000;9.194;2023-02-01T00:19:54;6.80;;;5.80;;
5475;SDS011;2760;50.000;9.194;2023-02-01T00:22:21;11.33;;;6.40;;
5475;SDS011;2760;50.000;9.194;2023-02-01T00:24:50;7.10;;;6.20;;
5475;SDS011;2760;50.000;9.194;2023-02-01T00:27:17;8.07;;;6.30;;
5475;SDS011;2760;50.000;9.194;2023-02-01T00:29:46;6.07;;;5.47;;
5475;SDS011;2760;50.000;9.194;2023-02-01T00:32:13;8.63;;;6.60;;
5475;SDS011;2760;50.000;9.194;2023-02-01T00:34:42;9.40;;;6.23;;
5475;SDS011;2760;50.000;9.194;2023-02-01T00:37:09;6.50;;;5.73;;
5475;SDS011;2760;50.000;9.194;2023-02-01T00:39:37;8.43;;;5.90;;
5475;SDS011;2760;50.000;9.194;2023-02-01T00:42:06;8.40;;;6.67;;
5475;SDS011;2760;50.000;9.194;2023-02-01T00:44:33;7.13;;;5.60;;
5475;SDS011;2760;50.000;9.194;2023-02-01T00:47:02;13.33;;;6.53;;
5475;SDS011;2760;50.000;9.194;2023-02-01T00:49:29;13.57;;;7.00;;
5475;SDS011;2760;50.000;9.194;2023-02-01T00:51:56;12.10;;;7.47;;
5475;SDS011;2760;50.000;9.194;2023-02-01T00:54:25;11.33;;;7.53;;
5475;SDS011;2760;50.000;9.194;2023-02-01T00:56:52;9.20;;;7.60;;
5475;SDS011;2760;50.000;9.194;2023-02-01T00:59:20;9.23;;;7.77;;
5475;SDS011;2760;50.000;9.194;2023-02-01T01:01:48;12.43;;;6.97;;
5475;SDS011;2760;50.000;9.194;2023-02-01T01:04:17;11.43;;;7.20;;
5475;SDS011;2760;50.000;9.194;2023-02-01T01:06:44;8.13;;;6.93;;
5475;SDS011;2760;50.000;9.194;2023-02-01T01:09:11;8.90;;;6.57;;
5475;SDS011;2760;50.000;9.194;2023-02-01T01:11:38;7.53;;;6.57;;
5475;SDS011;2760;50.000;9.194;2023-02-01T01:14:06;9.67;;;6.70;;
5475;SDS011;2760;50.000;9.194;2023-02-01T01:16:36;8.07;;;6.63;;
5475;SDS011;2760;50.000;9.194;2023-02-01T01:19:03;9.17;;;6.60;;
5475;SDS011;2760;50.000;9.194;2023-02-01T01:21:30;14.43;;;5.60;;
5475;SDS011;2760;50.000;9.194;2023-02-01T01:23:58;9.73;;;5.73;;
5475;SDS011;2760;50.000;9.194;2023-02-01T01:26:26;9.20;;;5.93;;
5475;SDS011;2760;50.000;9.194;2023-02-01T01:28:55;6.90;;;6.20;;
5475;SDS011;2760;50.000;9.194;2023-02-01T01:31:23;7.80;;;6.97;;
5475;SDS011;2760;50.000;9.194;2023-02-01T01:33:54;7.90;;;6.40;;
5475;SDS011;2760;50.000;9.194;2023-02-01T01:36:22;6.67;;;5.30;;
5475;SDS011;2760;50.000;9.194;2023-02-01T01:38:51;8.70;;;6.63;;
5475;SDS011;2760;50.000;9.194;2023-02-01T01:41:20;12.70;;;6.97;;
5475;SDS011;2760;50.000;9.194;2023-02-01T01:43:50;9.67;;;6.80;;
5475;SDS011;2760;50.000;9.194;2023-02-01T01:46:22;11.27;;;7.30;;
5475;SDS011;2760;50.000;9.194;2023-02-01T01:48:51;9.80;;;7.30;;
5475;SDS011;2760;50.000;9.194;2023-02-01T01:51:29;9.83;;;6.70;;
5475;SDS011;2760;50.000;9.194;2023-02-01T01:53:59;7.93;;;6.93;;
5475;SDS011;2760;50.000;9.194;2023-02-01T01:56:29;7.50;;;6.67;;
5475;SDS011;2760;50.000;9.194;2023-02-01T01:58:58;10.40;;;6.93;;
5475;SDS011;2760;50.000;9.194;2023-02-01T02:01:26;8.93;;;7.40;;
5475;SDS011;2760;50.000;9.194;2023-02-01T02:03:57;11.70;;;8.00;;
5475;SDS011;2760;50.000;9.194;2023-02-01T02:06:34;10.97;;;7.50;;
5475;SDS011;2760;50.000;9.194;2023-02-01T02:09:10;11.50;;;7.30;;
5475;SDS011;2760;50.000;9.194;2023-02-01T02:11:38;8.93;;;7.20;;
5475;SDS011;2760;50.000;9.194;2023-02-01T02:14:06;10.43;;;7.53;;
5475;SDS011;2760;50.000;9.194;2023-02-01T02:22:55;8.30;;;7.10;;
5475;SDS011;2760;50.000;9.194;2023-02-01T02:25:53;8.87;;;7.57;;
5475;SDS011;2760;50.000;9.194;2023-02-01T02:28:57;9.50;;;7.40;;
5475;SDS011;2760;50.000;9.194;2023-02-01T02:31:52;12.60;;;7.50;;
5475;SDS011;2760;50.000;9.194;2023-02-01T02:34:38;11.33;;;8.27;;
5475;SDS011;2760;50.000;9.194;2023-02-01T02:37:12;9.83;;;7.10;;
5475;SDS011;2760;50.000;9.194;2023-02-01T02:39:50;10.30;;;8.20;;
5475;SDS011;2760;50.000;9.194;2023-02-01T02:42:27;13.20;;;9.20;;
5475;SDS011;2760;50.000;9.194;2023-02-01T02:45:19;12.53;;;8.40;;
5475;SDS011;2760;50.000;9.194;2023-02-01T02:48:11;15.10;;;8.37;;
5475;SDS011;2760;50.000;9.194;2023-02-01T02:50:45;10.77;;;8.20;;
5475;SDS011;2760;50.000;9.194;2023-02-01T02:53:35;14.90;;;8.83;;
5475;SDS011;2760;50.000;9.194;2023-02-01T02:56:26;13.10;;;8.43;;
5475;SDS011;2760;50.000;9.194;2023-02-01T02:59:12;12.70;;;8.63;;
5475;SDS011;2760;50.000;9.194;2023-02-01T03:01:59;9.43;;;7.13;;
5475;SDS011;2760;50.000;9.194;2023-02-01T03:04:43;11.30;;;8.90;;
5475;SDS011;2760;50.000;9.194;2023-02-01T03:07:13;11.70;;;7.63;;
5475;SDS011;2760;50.000;9.194;2023-02-01T03:10:01;11.17;;;7.70;;
5475;SDS011;2760;50.000;9.194;2023-02-01T03:12:32;8.97;;;7.67;;
5475;SDS011;2760;50.000;9.194;2023-02-01T03:15:26;9.50;;;7.50;;
5475;SDS011;2760;50.000;9.194;2023-02-01T03:17:59;9.73;;;6.83;;
5475;SDS011;2760;50.000;9.194;2023-02-01T03:20:28;13.83;;;7.73;;
5475;SDS011;2760;50.000;9.194;2023-02-01T03:22:58;9.33;;;7.57;;
5475;SDS011;2760;50.000;9.194;2023-02-01T03:25:28;10.30;;;6.53;;
5475;SDS011;2760;50.000;9.194;2023-02-01T03:27:59;13.90;;;7.10;;
5475;SDS011;2760;50.000;9.194;2023-02-01T03:30:29;11.70;;;7.93;;
5475;SDS011;2760;50.000;9.194;2023-02-01T03:33:04;11.20;;;7.33;;
5475;SDS011;2760;50.000;9.194;2023-02-01T03:35:40;13.87;;;6.73;;
5475;SDS011;2760;50.000;9.194;2023-02-01T03:38:16;12.27;;;8.03;;
5475;SDS011;2760;50.000;9.194;2023-02-01T03:40:49;10.20;;;7.00;;
5475;SDS011;2760;50.000;9.194;2023-02-01T03:43:19;12.50;;;7.80;;
5475;SDS011;2760;50.000;9.194;2023-02-01T03:45:50;9.40;;;6.90;;
5475;SDS011;2760;50.000;9.194;2023-02-01T03:48:23;12.00;;;6.70;;
5475;SDS011;2760;50.000;9.194;2023-02-01T03:51:00;13.23;;;5.60;;
5475;SDS011;2760;50.000;9.194;2023-02-01T03:53:33;6.17;;;4.70;;
5475;SDS011;2760;50.000;9.194;2023-02-01T03:56:05;6.83;;;5.17;;
5475;SDS011;2760;50.000;9.194;2023-02-01T03:58:33;10.80;;;4.70;;
5475;SDS011;2760;50.000;9.194;2023-02-01T04:01:02;5.67;;;5.10;;
5475;SDS011;2760;50.000;9.194;2023-02-01T04:03:33;7.17;;;4.70;;
5475;SDS011;2760;50.000;9.194;2023-02-01T04:06:08;4.97;;;4.47;;
5475;SDS011;2760;50.000;9.194;2023-02-01T04:08:36;6.63;;;4.77;;
5475;SDS011;2760;50.000;9.194;2023-02-01T04:11:04;10.33;;;4.30;;
5475;SDS011;2760;50.000;9.194;2023-02-01T04:13:31;6.43;;;4.60;;
5475;SDS011;2760;50.000;9.194;2023-02-01T04:15:58;13.20;;;5.17;;
5475;SDS011;2760;50.000;9.194;2023-02-01T04:18:28;7.57;;;4.63;;
5475;SDS011;2760;50.000;9.194;2023-02-01T04:21:01;9.90;;;5.33;;
5475;SDS011;2760;50.000;9.194;2023-02-01T04:23:28;6.07;;;3.70;;
5475;SDS011;2760;50.000;9.194;2023-02-01T04:26:00;7.67;;;4.00;;
5475;SDS011;2760;50.000;9.194;2023-02-01T04:28:27;8.30;;;3.80;;
5475;SDS011;2760;50.000;9.194;2023-02-01T04:30:55;4.40;;;3.30;;
5475;SDS011;2760;50.000;9.194;2023-02-01T04:33:22;6.47;;;3.97;;
5475;SDS011;2760;50.000;9.194;2023-02-01T04:35:50;9.03;;;4.60;;
5475;SDS011;2760;50.000;9.194;2023-02-01T04:38:17;11.63;;;4.50;;
5475;SDS011;2760;50.000;9.194;2023-02-01T04:40:46;5.50;;;3.47;;
5475;SDS011;2760;50.000;9.194;2023-02-01T04:43:15;5.40;;;3.43;;
5475;SDS011;2760;50.000;9.194;2023-02-01T04:45:47;3.77;;;2.83;;
5475;SDS011;2760;50.000;9.194;2023-02-01T04:48:16;3.73;;;3.43;;
5475;SDS011;2760;50.000;9.194;2023-02-01T04:50:44;3.50;;;2.77;;
5475;SDS011;2760;50.000;9.194;2023-02-01T04:53:13;11.20;;;4.37;;
5475;SDS011;2760;50.000;9.194;2023-02-01T04:55:40;8.03;;;4.90;;
5475;SDS011;2760;50.000;9.194;2023-02-01T04:58:07;22.57;;;10.27;;
5475;SDS011;2760;50.000;9.194;2023-02-01T05:00:36;8.93;;;4.93;;
5475;SDS011;2760;50.000;9.194;2023-02-01T05:03:03;4.87;;;4.47;;
5475;SDS011;2760;50.000;9.194;2023-02-01T05:05:31;7.40;;;4.90;;
5475;SDS011;2760;50.000;9.194;2023-02-01T05:07:59;6.53;;;5.20;;
5475;SDS011;2760;50.000;9.194;2023-02-01T05:10:26;9.60;;;5.03;;
5475;SDS011;2760;50.000;9.194;2023-02-01T05:12:53;6.67;;;4.80;;
5475;SDS011;2760;50.000;9.194;2023-02-01T05:15:39;7.77;;;5.87;;
5475;SDS011;2760;50.000;9.194;2023-02-01T05:18:09;7.37;;;5.20;;
5475;SDS011;2760;50.000;9.194;2023-02-01T05:20:36;8.70;;;5.90;;
5475;SDS011;2760;50.000;9.194;2023-02-01T05:23:03;7.60;;;6.00;;
5475;SDS011;2760;50.000;9.194;2023-02-01T05:25:31;6.63;;;5.90;;
5475;SDS011;2760;50.000;9.194;2023-02-01T05:27:58;10.10;;;6.77;;
5475;SDS011;2760;50.000;9.194;2023-02-01T05:30:25;12.10;;;8.33;;
5475;SDS011;2760;50.000;9.194;2023-02-01T05:32:53;8.93;;;5.37;;
5475;SDS011;2760;50.000;9.194;2023-02-01T05:35:22;9.20;;;5.40;;
5475;SDS011;2760;50.000;9.194;2023-02-01T05:37:50;7.57;;;5.33;;
5475;SDS011;2760;50.000;9.194;2023-02-01T05:40:17;7.70;;;4.97;;
5475;SDS011;2760;50.000;9.194;2023-02-01T05:42:44;8.73;;;5.83;;
5475;SDS011;2760;50.000;9.194;2023-02-01T05:45:12;9.20;;;7.23;;
5475;SDS011;2760;50.000;9.194;2023-02-01T05:47:39;7.50;;;6.60;;
5475;SDS011;2760;50.000;9.194;2023-02-01T05:50:09;10.33;;;6.50;;
5475;SDS011;2760;50.000;9.194;2023-02-01T05:52:39;7.50;;;6.10;;
5475;SDS011;2760;50.000;9.194;2023-02-01T05:55:06;13.60;;;7.10;;
5475;SDS011;2760;50.000;9.194;2023-02-01T05:57:33;12.50;;;6.97;;
5475;SDS011;2760;50.000;9.194;2023-02-01T06:00:01;7.97;;;6.40;;
5475;SDS011;2760;50.000;9.194;2023-02-01T06:02:37;12.73;;;6.40;;
5475;SDS011;2760;50.000;9.194;2023-02-01T06:05:06;12.63;;;6.50;;
5475;SDS011;2760;50.000;9.194;2023-02-01T06:07:38;11.33;;;5.73;;
5475;SDS011;2760;50.000;9.194;2023-02-01T06:10:06;8.00;;;5.50;;
5475;SDS011;2760;50.000;9.194;2023-02-01T06:12:33;12.93;;;6.67;;
5475;SDS011;2760;50.000;9.194;2023-02-01T06:15:00;11.53;;;5.63;;
5475;SDS011;2760;50.000;9.194;2023-02-01T06:17:29;12.30;;;7.33;;
5475;SDS011;2760;50.000;9.194;2023-02-01T06:19:56;12.30;;;7.53;;
5475;SDS011;2760;50.000;9.194;2023-02-01T06:22:23;11.10;;;6.70;;
5475;SDS011;2760;50.000;9.194;2023-02-01T06:24:56;10.10;;;5.70;;
5475;SDS011;2760;50.000;9.194;2023-02-01T06:27:26;10.70;;;5.60;;
5475;SDS011;2760;50.000;9.194;2023-02-01T06:29:55;10.10;;;5.40;;
5475;SDS011;2760;50.000;9.194;2023-02-01T06:32:26;12.80;;;6.00;;
5475;SDS011;2760;50.000;9.194;2023-02-01T06:34:54;13.63;;;5.30;;
5475;SDS011;2760;50.000;9.194;2023-02-01T06:37:23;11.77;;;5.80;;
5475;SDS011;2760;50.000;9.194;2023-02-01T06:39:55;8.90;;;5.70;;
5475;SDS011;2760;50.000;9.194;2023-02-01T06:42:26;17.80;;;6.20;;
5475;SDS011;2760;50.000;9.194;2023-02-01T06:44:53;10.40;;;5.50;;
5475;SDS011;2760;50.000;9.194;2023-02-01T06:47:25;16.70;;;6.10;;
5475;SDS011;2760;50.000;9.194;2023-02-01T06:49:52;11.57;;;5.37;;
5475;SDS011;2760;50.000;9.194;2023-02-01T06:52:19;13.07;;;4.33;;
5475;SDS011;2760;50.000;9.194;2023-02-01T06:54:46;10.87;;;4.30;;
5475;SDS011;2760;50.000;9.194;2023-02-01T06:57:16;11.77;;;4.50;;
5475;SDS011;2760;50.000;9.194;2023-02-01T06:59:44;7.90;;;4.27;;
5475;SDS011;2760;50.000;9.194;2023-02-01T07:02:11;11.13;;;4.23;;
5475;SDS011;2760;50.000;9.194;2023-02-01T07:04:42;15.93;;;3.97;;
5475;SDS011;2760;50.000;9.194;2023-02-01T07:07:09;8.97;;;4.50;;
5475;SDS011;2760;50.000;9.194;2023-02-01T07:09:37;10.10;;;4.63;;
5475;SDS011;2760;50.000;9.194;2023-02-01T07:12:05;8.27;;;4.50;;
5475;SDS011;2760;50.000;9.194;2023-02-01T07:14:34;11.00;;;4.40;;
5475;SDS011;2760;50.000;9.194;2023-02-01T07:17:04;7.07;;;4.37;;
5475;SDS011;2760;50.000;9.194;2023-02-01T07:19:32;10.83;;;3.73;;
5475;SDS011;2760;50.000;9.194;2023-02-01T07:22:00;5.90;;;3.50;;
5475;SDS011;2760;50.000;9.194;2023-02-01T07:24:27;6.77;;;4.87;;
5475;SDS011;2760;50.000;9.194;2023-02-01T07:26:56;8.30;;;4.33;;
5475;SDS011;2760;50.000;9.194;2023-02-01T07:29:23;6.30;;;3.93;;
5475;SDS011;2760;50.000;9.194;2023-02-01T07:31:54;5.20;;;3.63;;
5475;SDS011;2760;50.000;9.194;2023-02-01T07:34:21;8.23;;;4.73;;
5475;SDS011;2760;50.000;9.194;2023-02-01T07:36:48;6.70;;;4.20;;
5475;SDS011;2760;50.000;9.194;2023-02-01T07:39:16;10.53;;;4.20;;
5475;SDS011;2760;50.000;9.194;2023-02-01T07:41:43;16.70;;;5.40;;
5475;SDS011;2760;50.000;9.194;2023-02-01T07:44:11;8.33;;;4.03;;
5475;SDS011;2760;50.000;9.194;2023-02-01T07:46:42;6.83;;;5.17;;
5475;SDS011;2760;50.000;9.194;2023-02-01T07:49:10;8.80;;;5.20;;
5475;SDS011;2760;50.000;9.194;2023-02-01T07:51:39;8.00;;;5.20;;
5475;SDS011;2760;50.000;9.194;2023-02-01T07:54:08;7.83;;;5.07;;
5475;SDS011;2760;50.000;9.194;2023-02-01T07:56:36;16.63;;;4.90;;
5475;SDS011;2760;50.000;9.194;2023-02-01T07:59:06;11.00;;;4.30;;
5475;SDS011;2760;50.000;9.194;2023-02-01T08:01:34;11.23;;;4.53;;
5475;SDS011;2760;50.000;9.194;2023-02-01T08:04:00;14.90;;;4.20;;
5475;SDS011;2760;50.000;9.194;2023-02-01T08:06:30;8.80;;;4.10;;
5475;SDS011;2760;50.000;9.194;2023-02-01T08:09:00;12.23;;;4.53;;
5475;SDS011;2760;50.000;9.194;2023-02-01T08:11:27;13.90;;;4.50;;
5475;SDS011;2760;50.000;9.194;2023-02-01T08:13:54;13.37;;;4.40;;
5475;SDS011;2760;50.000;9.194;2023-02-01T08:16:21;6.30;;;4.10;;
5475;SDS011;2760;50.000;9.194;2023-02-01T08:18:49;9.37;;;3.70;;
5475;SDS011;2760;50.000;9.194;2023-02-01T08:21:19;6.20;;;3.50;;
5475;SDS011;2760;50.000;9.194;2023-02-01T08:23:49;9.33;;;3.60;;
5475;SDS011;2760;50.000;9.194;2023-02-01T08:26:17;8.10;;;3.90;;
5475;SDS011;2760;50.000;9.194;2023-02-01T08:28:47;7.37;;;4.00;;
5475;SDS011;2760;50.000;9.194;2023-02-01T08:31:16;8.87;;;3.93;;
5475;SDS011;2760;50.000;9.194;2023-02-01T08:33:47;15.33;;;4.03;;
5475;SDS011;2760;50.000;9.194;2023-02-01T08:36:17;8.63;;;4.03;;
5475;SDS011;2760;50.000;9.194;2023-02-01T08:38:44;10.37;;;4.20;;
5475;SDS011;2760;50.000;9.194;2023-02-01T08:41:13;7.90;;;4.40;;
5475;SDS011;2760;50.000;9.194;2023-02-01T08:43:45;12.17;;;3.73;;
5475;SDS011;2760;50.000;9.194;2023-02-01T08:46:13;9.03;;;4.00;;
5475;SDS011;2760;50.000;9.194;2023-02-01T08:48:44;7.20;;;3.67;;
5475;SDS011;2760;50.000;9.194;2023-02-01T08:51:13;6.80;;;4.00;;
5475;SDS011;2760;50.000;9.194;2023-02-01T08:53:41;13.67;;;5.87;;
5475;SDS011;2760;50.000;9.194;2023-02-01T08:56:09;8.97;;;3.83;;
5475;SDS011;2760;50.000;9.194;2023-02-01T08:58:41;29.00;;;5.10;;
5475;SDS011;2760;50.000;9.194;2023-02-01T09:01:09;11.00;;;4.30;;
5475;SDS011;2760;50.000;9.194;2023-02-01T09:03:41;14.93;;;4.60;;
5475;SDS011;2760;50.000;9.194;2023-02-01T09:06:09;17.33;;;5.27;;
5475;SDS011;2760;50.000;9.194;2023-02-01T09:08:38;9.13;;;4.40;;
5475;SDS011;2760;50.000;9.194;2023-02-01T09:11:07;18.10;;;5.60;;
5475;SDS011;2760;50.000;9.194;2023-02-01T09:13:43;12.30;;;4.90;;
5475;SDS011;2760;50.000;9.194;2023-02-01T09:16:11;6.53;;;4.33;;
5475;SDS011;2760;50.000;9.194;2023-02-01T09:18:41;10.40;;;4.40;;
5475;SDS011;2760;50.000;9.194;2023-02-01T09:21:08;14.93;;;4.37;;
5475;SDS011;2760;50.000;9.194;2023-02-01T09:23:38;16.43;;;4.57;;
5475;SDS011;2760;50.000;9.194;2023-02-01T09:29:54;22.23;;;4.73;;
5475;SDS011;2760;50.000;9.194;2023-02-01T09:32:21;16.53;;;4.60;;
5475;SDS011;2760;50.000;9.194;2023-02-01T09:34:49;8.50;;;4.60;;
5475;SDS011;2760;50.000;9.194;2023-02-01T09:37:17;13.87;;;4.67;;
5475;SDS011;2760;50.000;9.194;2023-02-01T09:39:44;27.97;;;4.90;;
5475;SDS011;2760;50.000;9.194;2023-02-01T09:42:16;13.13;;;4.30;;
5475;SDS011;2760;50.000;9.194;2023-02-01T09:45:01;11.57;;;3.73;;
5475;SDS011;2760;50.000;9.194;2023-02-01T09:47:42;15.60;;;4.43;;
5475;SDS011;2760;50.000;9.194;2023-02-01T09:50:13;11.63;;;5.00;;
5475;SDS011;2760;50.000;9.194;2023-02-01T09:52:46;13.83;;;4.67;;
5475;SDS011;2760;50.000;9.194;2023-02-01T09:55:19;9.63;;;4.90;;
5475;SDS011;2760;50.000;9.194;2023-02-01T09:57:53;14.80;;;5.20;;
5475;SDS011;2760;50.000;9.194;2023-02-01T10:00:31;15.07;;;4.70;;
5475;SDS011;2760;50.000;9.194;2023-02-01T10:03:01;14.10;;;3.50;;
5475;SDS011;2760;50.000;9.194;2023-02-01T10:05:34;13.67;;;3.90;;
5475;SDS011;2760;50.000;9.194;2023-02-01T10:08:12;15.40;;;4.20;;
5475;SDS011;2760;50.000;9.194;2023-02-01T10:11:04;10.53;;;4.70;;
5475;SDS011;2760;50.000;9.194;2023-02-01T10:14:29;10.70;;;4.10;;
5475;SDS011;2760;50.000;9.194;2023-02-01T10:17:42;15.67;;;3.47;;
5475;SDS011;2760;50.000;9.194;2023-02-01T10:20:18;15.13;;;3.13;;
5475;SDS011;2760;50.000;9.194;2023-02-01T10:22:55;9.33;;;3.40;;
5475;SDS011;2760;50.000;9.194;2023-02-01T10:25:35;11.17;;;3.47;;
5475;SDS011;2760;50.000;9.194;2023-02-01T10:28:13;17.53;;;3.60;;
5475;SDS011;2760;50.000;9.194;2023-02-01T10:30:43;14.00;;;4.13;;
5475;SDS011;2760;50.000;9.194;2023-02-01T10:33:17;17.23;;;3.90;;
5475;SDS011;2760;50.000;9.194;2023-02-01T10:35:49;8.33;;;3.83;;
5475;SDS011;2760;50.000;9.194;2023-02-01T10:38:22;10.53;;;4.20;;
5475;SDS011;2760;50.000;9.194;2023-02-01T10:40:53;12.70;;;3.83;;
5475;SDS011;2760;50.000;9.194;2023-02-01T10:43:28;10.80;;;3.70;;
5475;SDS011;2760;50.000;9.194;2023-02-01T10:45:56;16.20;;;3.70;;
5475;SDS011;2760;50.000;9.194;2023-02-01T10:48:25;13.83;;;3.87;;
5475;SDS011;2760;50.000;9.194;2023-02-01T10:50:53;17.87;;;3.80;;
5475;SDS011;2760;50.000;9.194;2023-02-01T10:53:29;29.77;;;5.23;;
5475;SDS011;2760;50.000;9.194;2023-02-01T10:56:05;20.27;;;5.97;;
5475;SDS011;2760;50.000;9.194;2023-02-01T10:58:35;12.53;;;3.70;;
5475;SDS011;2760;50.000;9.194;2023-02-01T11:01:09;12.20;;;3.67;;
5475;SDS011;2760;50.000;9.194;2023-02-01T11:03:46;15.47;;;3.43;;
5475;SDS011;2760;50.000;9.194;2023-02-01T11:06:22;20.07;;;4.60;;
5475;SDS011;2760;50.000;9.194;2023-02-01T11:08:57;8.53;;;3.40;;
5475;SDS011;2760;50.000;9.194;2023-02-01T11:11:26;13.40;;;3.67;;
5475;SDS011;2760;50.000;9.194;2023-02-01T11:13:58;15.10;;;2.97;;
5475;SDS011;2760;50.000;9.194;2023-02-01T11:16:30;11.43;;;3.40;;
5475;SDS011;2760;50.000;9.194;2023-02-01T11:19:02;12.47;;;3.00;;
5475;SDS011;2760;50.000;9.194;2023-02-01T11:21:30;12.93;;;3.20;;
5475;SDS011;2760;50.000;9.194;2023-02-01T11:24:00;7.50;;;3.67;;
5475;SDS011;2760;50.000;9.194;2023-02-01T11:26:35;11.10;;;4.03;;
5475;SDS011;2760;50.000;9.194;2023-02-01T11:29:11;6.80;;;2.93;;
5475;SDS011;2760;50.000;9.194;2023-02-01T11:31:42;19.43;;;4.70;;
5475;SDS011;2760;50.000;9.194;2023-02-01T11:34:14;10.70;;;3.70;;
5475;SDS011;2760;50.000;9.194;2023-02-01T11:36:45;9.97;;;3.90;;
5475;SDS011;2760;50.000;9.194;2023-02-01T11:39:21;12.10;;;3.17;;
5475;SDS011;2760;50.000;9.194;2023-02-01T11:42:00;14.27;;;3.60;;
5475;SDS011;2760;50.000;9.194;2023-02-01T11:44:42;10.03;;;3.63;;
5475;SDS011;2760;50.000;9.194;2023-02-01T11:47:24;16.13;;;3.97;;
5475;SDS011;2760;50.000;9.194;2023-02-01T11:49:54;8.67;;;3.60;;
5475;SDS011;2760;50.000;9.194;2023-02-01T11:52:29;12.60;;;3.80;;
5475;SDS011;2760;50.000;9.194;2023-02-01T11:55:14;13.47;;;3.90;;
5475;SDS011;2760;50.000;9.194;2023-02-01T11:58:04;7.50;;;3.67;;
5475;SDS011;2760;50.000;9.194;2023-02-01T12:00:43;11.13;;;3.80;;
5475;SDS011;2760;50.000;9.194;2023-02-01T12:06:36;16.70;;;3.83;;
5475;SDS011;2760;50.000;9.194;2023-02-01T12:09:17;9.90;;;3.50;;
5475;SDS011;2760;50.000;9.194;2023-02-01T12:12:03;11.57;;;3.50;;
5475;SDS011;2760;50.000;9.194;2023-02-01T12:20:36;11.33;;;3.07;;
5475;SDS011;2760;50.000;9.194;2023-02-01T12:23:31;13.53;;;2.97;;
5475;SDS011;2760;50.000;9.194;2023-02-01T12:29:29;10.20;;;3.20;;
5475;SDS011;2760;50.000;9.194;2023-02-01T12:32:31;14.93;;;3.77;;
5475;SDS011;2760;50.000;9.194;2023-02-01T12:38:15;11.57;;;3.63;;
5475;SDS011;2760;50.000;9.194;2023-02-01T12:40:59;10.57;;;3.63;;
5475;SDS011;2760;50.000;9.194;2023-02-01T12:43:46;16.20;;;4.40;;
5475;SDS011;2760;50.000;9.194;2023-02-01T12:46:19;19.30;;;5.10;;
5475;SDS011;2760;50.000;9.194;2023-02-01T12:48:53;12.10;;;3.13;;
5475;SDS011;2760;50.000;9.194;2023-02-01T12:51:25;5.57;;;3.10;;
5475;SDS011;2760;50.000;9.194;2023-02-01T12:57:23;7.67;;;2.70;;
5475;SDS011;2760;50.000;9.194;2023-02-01T12:59:55;7.70;;;3.50;;
5475;SDS011;2760;50.000;9.194;2023-02-01T13:02:29;20.03;;;4.17;;
5475;SDS011;2760;50.000;9.194;2023-02-01T13:05:05;14.43;;;3.40;;
5475;SDS011;2760;50.000;9.194;2023-02-01T13:07:48;13.17;;;3.57;;
5475;SDS011;2760;50.000;9.194;2023-02-01T13:10:27;14.77;;;3.63;;
5475;SDS011;2760;50.000;9.194;2023-02-01T13:13:11;20.40;;;4.60;;
5475;SDS011;2760;50.000;9.194;2023-02-01T13:15:44;17.47;;;3.50;;
5475;SDS011;2760;50.000;9.194;2023-02-01T13:18:18;8.87;;;3.47;;
5475;SDS011;2760;50.000;9.194;2023-02-01T13:20:53;9.40;;;3.80;;
5475;SDS011;2760;50.000;9.194;2023-02-01T13:23:31;13.27;;;3.20;;
5475;SDS011;2760;50.000;9.194;2023-02-01T13:26:09;8.73;;;3.10;;
5475;SDS011;2760;50.000;9.194;2023-02-01T13:28:42;11.87;;;2.93;;
5475;SDS011;2760;50.000;9.194;2023-02-01T13:31:32;13.63;;;3.13;;
5475;SDS011;2760;50.000;9.194;2023-02-01T13:34:39;13.47;;;3.07;;
5475;SDS011;2760;50.000;9.194;2023-02-01T13:37:40;7.90;;;3.00;;
5475;SDS011;2760;50.000;9.194;2023-02-01T13:40:33;12.40;;;3.97;;
5475;SDS011;2760;50.000;9.194;2023-02-01T13:43:06;9.93;;;3.30;;
5475;SDS011;2760;50.000;9.194;2023-02-01T13:45:43;18.87;;;3.47;;
5475;SDS011;2760;50.000;9.194;2023-02-01T13:48:20;12.07;;;3.10;;
5475;SDS011;2760;50.000;9.194;2023-02-01T13:50:54;9.20;;;3.03;;
5475;SDS011;2760;50.000;9.194;2023-02-01T13:53:25;5.13;;;2.80;;
5475;SDS011;2760;50.000;9.194;2023-02-01T13:55:56;8.47;;;3.30;;
5475;SDS011;2760;50.000;9.194;2023-02-01T13:58:33;8.47;;;3.27;;
5475;SDS011;2760;50.000;9.194;2023-02-01T14:04:01;16.77;;;3.03;;
5475;SDS011;2760;50.000;9.194;2023-02-01T14:06:38;15.17;;;3.40;;
5475;SDS011;2760;50.000;9.194;2023-02-01T14:09:19;6.30;;;3.37;;
5475;SDS011;2760;50.000;9.194;2023-02-01T14:15:19;20.70;;;3.70;;
5475;SDS011;2760;50.000;9.194;2023-02-01T14:17:53;14.23;;;3.60;;
5475;SDS011;2760;50.000;9.194;2023-02-01T14:23:21;13.70;;;2.87;;
5475;SDS011;2760;50.000;9.194;2023-02-01T14:26:06;4.60;;;3.10;;
5475;SDS011;2760;50.000;9.194;2023-02-01T14:28:45;9.00;;;3.10;;
5475;SDS011;2760;50.000;9.194;2023-02-01T14:34:12;9.97;;;3.07;;
5475;SDS011;2760;50.000;9.194;2023-02-01T14:36:55;6.50;;;3.20;;
5475;SDS011;2760;50.000;9.194;2023-02-01T14:39:26;11.57;;;3.03;;
5475;SDS011;2760;50.000;9.194;2023-02-01T14:42:01;12.37;;;3.40;;
5475;SDS011;2760;50.000;9.194;2023-02-01T14:44:44;9.33;;;3.50;;
5475;SDS011;2760;50.000;9.194;2023-02-01T14:50:02;18.53;;;3.40;;
5475;SDS011;2760;50.000;9.194;2023-02-01T14:55:53;15.23;;;3.00;;
5475;SDS011;2760;50.000;9.194;2023-02-01T14:58:32;7.93;;;3.47;;
5475;SDS011;2760;50.000;9.194;2023-02-01T15:01:03;9.40;;;3.33;;
5475;SDS011;2760;50.000;9.194;2023-02-01T15:03:38;16.73;;;3.60;;
5475;SDS011;2760;50.000;9.194;2023-02-01T15:06:26;12.17;;;3.07;;
5475;SDS011;2760;50.000;9.194;2023-02-01T15:09:00;22.93;;;2.90;;
5475;SDS011;2760;50.000;9.194;2023-02-01T15:11:31;10.43;;;3.67;;
5475;SDS011;2760;50.000;9.194;2023-02-01T15:13:58;10.77;;;2.97;;
5475;SDS011;2760;50.000;9.194;2023-02-01T15:16:26;7.97;;;3.57;;
5475;SDS011;2760;50.000;9.194;2023-02-01T15:19:09;23.13;;;3.00;;
5475;SDS011;2760;50.000;9.194;2023-02-01T15:21:48;9.37;;;3.50;;
5475;SDS011;2760;50.000;9.194;2023-02-01T15:24:22;17.73;;;4.37;;
5475;SDS011;2760;50.000;9.194;2023-02-01T15:26:52;25.13;;;4.37;;
5475;SDS011;2760;50.000;9.194;2023-02-01T15:29:21;15.27;;;3.30;;
5475;SDS011;2760;50.000;9.194;2023-02-01T15:31:59;6.77;;;2.60;;
5475;SDS011;2760;50.000;9.194;2023-02-01T15:37:14;11.00;;;3.37;;
5475;SDS011;2760;50.000;9.194;2023-02-01T15:42:49;6.53;;;2.50;;
5475;SDS011;2760;50.000;9.194;2023-02-01T15:45:18;16.33;;;3.50;;
5475;SDS011;2760;50.000;9.194;2023-02-01T15:47:47;9.97;;;3.20;;
5475;SDS011;2760;50.000;9.194;2023-02-01T15:50:15;18.60;;;3.30;;
5475;SDS011;2760;50.000;9.194;2023-02-01T15:52:49;10.10;;;3.13;;
5475;SDS011;2760;50.000;9.194;2023-02-01T15:55:20;17.73;;;3.93;;
5475;SDS011;2760;50.000;9.194;2023-02-01T15:57:54;9.80;;;3.50;;
5475;SDS011;2760;50.000;9.194;2023-02-01T16:00:46;10.30;;;3.87;;
5475;SDS011;2760;50.000;9.194;2023-02-01T16:03:28;13.53;;;5.23;;
5475;SDS011;2760;50.000;9.194;2023-02-01T16:06:29;19.67;;;3.90;;
5475;SDS011;2760;50.000;9.194;2023-02-01T16:09:10;31.73;;;4.53;;
5475;SDS011;2760;50.000;9.194;2023-02-01T16:11:52;10.33;;;4.00;;
5475;SDS011;2760;50.000;9.194;2023-02-01T16:14:36;10.47;;;3.60;;
5475;SDS011;2760;50.000;9.194;2023-02-01T16:17:08;20.03;;;3.77;;
5475;SDS011;2760;50.000;9.194;2023-02-01T16:19:36;14.87;;;4.47;;
5475;SDS011;2760;50.000;9.194;2023-02-01T16:22:04;16.30;;;4.30;;
5475;SDS011;2760;50.000;9.194;2023-02-01T16:24:33;13.60;;;4.60;;
5475;SDS011;2760;50.000;9.194;2023-02-01T16:27:00;16.07;;;4.27;;
5475;SDS011;2760;50.000;9.194;2023-02-01T16:29:30;9.00;;;3.90;;
5475;SDS011;2760;50.000;9.194;2023-02-01T16:31:57;16.97;;;4.20;;
5475;SDS011;2760;50.000;9.194;2023-02-01T16:34:25;14.70;;;4.63;;